sensor_id;sensor_type;location;lat;lon;timestamp;pressure;altitude;pressure_sealevel;temperature;humidity
78299;BME280;67556;55.656;12.590;2023-04-25T00:00:56;99748.94;;;8.21;80.32
78299;BME280;67556;55.656;12.590;2023-04-25T00:03:22;99738.31;;;8.20;80.44
78299;BME280;67556;55.656;12.590;2023-04-25T00:05:51;99729.47;;;8.21;80.52
78299;BME280;67556;55.656;12.590;2023-04-25T00:08:19;99724.91;;;8.15;80.63
78299;BME280;67556;55.656;12.590;2023-04-25T00:10:46;99721.41;;;8.16;79.93
78299;BME280;67556;55.656;12.590;2023-04-25T00:13:14;99714.34;;;8.17;79.95
78299;BME280;67556;55.656;12.590;2023-04-25T00:15:43;99712.34;;;8.08;80.58
78299;BME280;67556;55.656;12.590;2023-04-25T00:18:11;99706.16;;;8.08;80.75
78299;BME280;67556;55.656;12.590;2023-04-25T00:20:38;99716.84;;;8.11;80.93
78299;BME280;67556;55.656;12.590;2023-04-25T00:23:10;99714.94;;;8.05;82.27
78299;BME280;67556;55.656;12.590;2023-04-25T00:25:38;99718.72;;;8.15;82.48
78299;BME280;67556;55.656;12.590;2023-04-25T00:28:04;99716.94;;;8.14;82.73
78299;BME280;67556;55.656;12.590;2023-04-25T00:30:31;99716.84;;;8.11;82.83
78299;BME280;67556;55.656;12.590;2023-04-25T00:32:57;99723.28;;;8.20;82.39
78299;BME280;67556;55.656;12.590;2023-04-25T00:35:24;99721.53;;;8.21;82.76
78299;BME280;67556;55.656;12.590;2023-04-25T00:37:50;99725.72;;;8.13;81.81
78299;BME280;67556;55.656;12.590;2023-04-25T00:40:17;99745.44;;;7.91;82.11
78299;BME280;67556;55.656;12.590;2023-04-25T00:42:45;99746.63;;;7.70;83.19
78299;BME280;67556;55.656;12.590;2023-04-25T00:45:14;99770.16;;;7.60;83.62
78299;BME280;67556;55.656;12.590;2023-04-25T00:47:41;99765.47;;;7.51;83.83
78299;BME280;67556;55.656;12.590;2023-04-25T00:50:09;99765.53;;;7.53;83.62
78299;BME280;67556;55.656;12.590;2023-04-25T00:52:36;99784.09;;;7.54;82.82
78299;BME280;67556;55.656;12.590;2023-04-25T00:55:04;99770.81;;;7.53;82.48
78299;BME280;67556;55.656;12.590;2023-04-25T00:57:32;99788.19;;;7.43;82.97
78299;BME280;67556;55.656;12.590;2023-04-25T01:00:00;99781.00;;;7.39;83.58
78299;BME280;67556;55.656;12.590;2023-04-25T01:02:28;99791.78;;;7.45;83.04
78299;BME280;67556;55.656;12.590;2023-04-25T01:04:55;99793.00;;;7.28;82.75
78299;BME280;67556;55.656;12.590;2023-04-25T01:07:22;99807.09;;;7.27;81.96
78299;BME280;67556;55.656;12.590;2023-04-25T01:09:51;99807.81;;;7.21;81.55
78299;BME280;67556;55.656;12.590;2023-04-25T01:12:17;99810.19;;;7.13;82.07
78299;BME280;67556;55.656;12.590;2023-04-25T01:14:44;99834.88;;;7.12;82.10
78299;BME280;67556;55.656;12.590;2023-04-25T01:17:13;99821.53;;;7.09;81.98
78299;BME280;67556;55.656;12.590;2023-04-25T01:19:40;99826.59;;;7.03;80.74
78299;BME280;67556;55.656;12.590;2023-04-25T01:22:09;99846.97;;;7.04;80.88
78299;BME280;67556;55.656;12.590;2023-04-25T01:24:36;99825.78;;;7.04;80.29
78299;BME280;67556;55.656;12.590;2023-04-25T01:27:03;99815.13;;;7.03;80.40
78299;BME280;67556;55.656;12.590;2023-04-25T01:29:32;99849.22;;;6.93;80.66
78299;BME280;67556;55.656;12.590;2023-04-25T01:32:00;99822.47;;;6.84;80.74
78299;BME280;67556;55.656;12.590;2023-04-25T01:34:27;99826.75;;;6.81;81.08
78299;BME280;67556;55.656;12.590;2023-04-25T01:36:53;99837.13;;;6.74;80.50
78299;BME280;67556;55.656;12.590;2023-04-25T01:39:21;99834.50;;;6.74;80.27
78299;BME280;67556;55.656;12.590;2023-04-25T01:41:48;99842.44;;;6.74;79.38
78299;BME280;67556;55.656;12.590;2023-04-25T01:44:15;99847.75;;;6.76;79.10
78299;BME280;67556;55.656;12.590;2023-04-25T01:46:42;99833.81;;;6.82;79.02
78299;BME280;67556;55.656;12.590;2023-04-25T01:49:08;99863.69;;;6.78;79.50
78299;BME280;67556;55.656;12.590;2023-04-25T01:51:38;99851.09;;;6.70;79.24
78299;BME280;67556;55.656;12.590;2023-04-25T01:54:06;99848.47;;;6.70;79.54
78299;BME280;67556;55.656;12.590;2023-04-25T01:56:36;99859.88;;;6.69;80.36
78299;BME280;67556;55.656;12.590;2023-04-25T01:59:04;99868.78;;;6.71;79.99
78299;BME280;67556;55.656;12.590;2023-04-25T02:01:31;99869.72;;;6.73;79.72
78299;BME280;67556;55.656;12.590;2023-04-25T02:03:57;99866.88;;;6.67;80.27
78299;BME280;67556;55.656;12.590;2023-04-25T02:06:25;99877.31;;;6.64;80.95
78299;BME280;67556;55.656;12.590;2023-04-25T02:08:51;99873.19;;;6.47;81.86
78299;BME280;67556;55.656;12.590;2023-04-25T02:11:18;99887.47;;;6.52;82.21
78299;BME280;67556;55.656;12.590;2023-04-25T02:13:46;99894.13;;;6.41;83.11
78299;BME280;67556;55.656;12.590;2023-04-25T02:16:12;99895.91;;;6.18;84.18
78299;BME280;67556;55.656;12.590;2023-04-25T02:18:39;99894.22;;;6.20;84.56
78299;BME280;67556;55.656;12.590;2023-04-25T02:21:05;99890.69;;;6.19;84.33
78299;BME280;67556;55.656;12.590;2023-04-25T02:23:33;99893.66;;;6.29;84.16
78299;BME280;67556;55.656;12.590;2023-04-25T02:25:59;99903.22;;;6.25;83.87
78299;BME280;67556;55.656;12.590;2023-04-25T02:28:26;99902.19;;;6.21;83.43
78299;BME280;67556;55.656;12.590;2023-04-25T02:30:54;99895.22;;;6.23;82.99
78299;BME280;67556;55.656;12.590;2023-04-25T02:33:20;99896.19;;;6.25;82.72
78299;BME280;67556;55.656;12.590;2023-04-25T02:35:47;99888.72;;;6.38;82.12
78299;BME280;67556;55.656;12.590;2023-04-25T02:38:13;99887.75;;;6.36;81.20
78299;BME280;67556;55.656;12.590;2023-04-25T02:40:40;99904.59;;;6.38;81.34
78299;BME280;67556;55.656;12.590;2023-04-25T02:43:09;99898.22;;;6.33;81.28
78299;BME280;67556;55.656;12.590;2023-04-25T02:45:36;99900.63;;;6.27;81.50
78299;BME280;67556;55.656;12.590;2023-04-25T02:48:04;99909.63;;;6.32;81.17
78299;BME280;67556;55.656;12.590;2023-04-25T02:50:31;99897.94;;;6.25;81.25
78299;BME280;67556;55.656;12.590;2023-04-25T02:52:58;99899.97;;;6.32;81.71
78299;BME280;67556;55.656;12.590;2023-04-25T02:55:25;99901.53;;;6.27;82.10
78299;BME280;67556;55.656;12.590;2023-04-25T02:57:52;99902.78;;;6.37;82.16
78299;BME280;67556;55.656;12.590;2023-04-25T03:02:56;99902.53;;;6.31;82.21
78299;BME280;67556;55.656;12.590;2023-04-25T03:05:24;99913.94;;;6.28;81.58
78299;BME280;67556;55.656;12.590;2023-04-25T03:07:51;99900.50;;;6.23;82.25
78299;BME280;67556;55.656;12.590;2023-04-25T03:10:17;99895.16;;;6.22;82.09
78299;BME280;67556;55.656;12.590;2023-04-25T03:12:44;99889.94;;;6.23;81.79
78299;BME280;67556;55.656;12.590;2023-04-25T03:15:11;99906.75;;;6.25;81.83
78299;BME280;67556;55.656;12.590;2023-04-25T03:17:37;99904.97;;;6.24;80.64
78299;BME280;67556;55.656;12.590;2023-04-25T03:20:05;99906.88;;;6.29;80.87
78299;BME280;67556;55.656;12.590;2023-04-25T03:22:37;99914.03;;;6.31;81.31
78299;BME280;67556;55.656;12.590;2023-04-25T03:25:06;99907.84;;;6.31;81.33
78299;BME280;67556;55.656;12.590;2023-04-25T03:27:33;99905.88;;;6.25;81.82
78299;BME280;67556;55.656;12.590;2023-04-25T03:29:59;99916.56;;;6.28;81.79
78299;BME280;67556;55.656;12.590;2023-04-25T03:32:26;99897.44;;;6.11;81.55
78299;BME280;67556;55.656;12.590;2023-04-25T03:34:52;99899.78;;;6.28;82.05
78299;BME280;67556;55.656;12.590;2023-04-25T03:37:19;99916.63;;;6.30;81.86
78299;BME280;67556;55.656;12.590;2023-04-25T03:39:47;99916.50;;;6.27;81.22
78299;BME280;67556;55.656;12.590;2023-04-25T03:42:13;99925.78;;;6.15;80.78
78299;BME280;67556;55.656;12.590;2023-04-25T03:44:40;99917.28;;;6.24;80.05
78299;BME280;67556;55.656;12.590;2023-04-25T03:47:06;99915.19;;;6.15;80.44
78299;BME280;67556;55.656;12.590;2023-04-25T03:49:34;99926.72;;;6.17;80.37
78299;BME280;67556;55.656;12.590;2023-04-25T03:52:01;99933.00;;;6.19;80.62
78299;BME280;67556;55.656;12.590;2023-04-25T03:54:28;99933.03;;;6.21;80.78
78299;BME280;67556;55.656;12.590;2023-04-25T03:56:57;99941.91;;;6.23;81.37
78299;BME280;67556;55.656;12.590;2023-04-25T03:59:23;99924.69;;;6.33;81.28
78299;BME280;67556;55.656;12.590;2023-04-25T04:01:50;99931.94;;;6.38;81.71
78299;BME280;67556;55.656;12.590;2023-04-25T04:04:16;99920.19;;;6.32;81.95
78299;BME280;67556;55.656;12.590;2023-04-25T04:06:43;99940.59;;;6.34;81.94
78299;BME280;67556;55.656;12.590;2023-04-25T04:09:12;99933.50;;;6.33;82.55
78299;BME280;67556;55.656;12.590;2023-04-25T04:11:39;99937.00;;;6.32;82.57
78299;BME280;67556;55.656;12.590;2023-04-25T04:14:09;99939.34;;;6.48;81.36
78299;BME280;67556;55.656;12.590;2023-04-25T04:16:35;99940.28;;;6.49;81.18
78299;BME280;67556;55.656;12.590;2023-04-25T04:19:02;99945.31;;;6.43;80.22
78299;BME280;67556;55.656;12.590;2023-04-25T04:21:29;99933.50;;;6.33;80.65
78299;BME280;67556;55.656;12.590;2023-04-25T04:23:55;99937.44;;;6.44;80.46
78299;BME280;67556;55.656;12.590;2023-04-25T04:26:23;99937.91;;;6.33;79.73
78299;BME280;67556;55.656;12.590;2023-04-25T04:28:55;99941.34;;;6.32;79.68
78299;BME280;67556;55.656;12.590;2023-04-25T04:31:25;99941.59;;;6.38;80.63
78299;BME280;67556;55.656;12.590;2023-04-25T04:33:52;99949.66;;;6.41;79.89
78299;BME280;67556;55.656;12.590;2023-04-25T04:36:19;99960.50;;;6.48;79.72
78299;BME280;67556;55.656;12.590;2023-04-25T04:38:48;99964.81;;;6.45;80.03
78299;BME280;67556;55.656;12.590;2023-04-25T04:41:14;99962.03;;;6.42;80.25
78299;BME280;67556;55.656;12.590;2023-04-25T04:43:41;99957.69;;;6.44;79.82
78299;BME280;67556;55.656;12.590;2023-04-25T04:46:08;99956.50;;;6.36;80.28
78299;BME280;67556;55.656;12.590;2023-04-25T04:48:36;99962.97;;;6.44;79.68
78299;BME280;67556;55.656;12.590;2023-04-25T04:51:06;99969.19;;;6.44;79.63
78299;BME280;67556;55.656;12.590;2023-04-25T04:53:33;99961.88;;;6.37;79.99
78299;BME280;67556;55.656;12.590;2023-04-25T04:56:00;99969.63;;;6.33;79.72
78299;BME280;67556;55.656;12.590;2023-04-25T04:58:26;99965.47;;;6.39;80.22
78299;BME280;67556;55.656;12.590;2023-04-25T05:00:54;99971.16;;;6.50;79.61
78299;BME280;67556;55.656;12.590;2023-04-25T05:03:21;99982.59;;;6.49;79.26
78299;BME280;67556;55.656;12.590;2023-04-25T05:05:49;99970.91;;;6.44;78.98
78299;BME280;67556;55.656;12.590;2023-04-25T05:08:15;99970.09;;;6.45;79.25
78299;BME280;67556;55.656;12.590;2023-04-25T05:10:41;99978.03;;;6.45;78.84
78299;BME280;67556;55.656;12.590;2023-04-25T05:13:08;99961.19;;;6.43;78.79
78299;BME280;67556;55.656;12.590;2023-04-25T05:15:37;99971.56;;;6.37;78.91
78299;BME280;67556;55.656;12.590;2023-04-25T05:18:03;99967.75;;;6.30;79.99
78299;BME280;67556;55.656;12.590;2023-04-25T05:20:29;99979.56;;;6.40;79.07
78299;BME280;67556;55.656;12.590;2023-04-25T05:22:57;99972.44;;;6.37;79.64
78299;BME280;67556;55.656;12.590;2023-04-25T05:25:24;99968.53;;;6.28;79.53
78299;BME280;67556;55.656;12.590;2023-04-25T05:27:50;99976.72;;;6.34;80.10
78299;BME280;67556;55.656;12.590;2023-04-25T05:30:17;99979.31;;;6.32;80.54
78299;BME280;67556;55.656;12.590;2023-04-25T05:32:45;99985.38;;;6.30;79.69
78299;BME280;67556;55.656;12.590;2023-04-25T05:35:12;99974.66;;;6.27;80.03
78299;BME280;67556;55.656;12.590;2023-04-25T05:37:39;99984.34;;;6.26;80.58
78299;BME280;67556;55.656;12.590;2023-04-25T05:40:08;99980.69;;;6.22;80.36
78299;BME280;67556;55.656;12.590;2023-04-25T05:42:36;99989.59;;;6.24;79.87
78299;BME280;67556;55.656;12.590;2023-04-25T05:45:03;99985.75;;;6.16;80.74
78299;BME280;67556;55.656;12.590;2023-04-25T05:47:29;100001.53;;;6.15;80.65
78299;BME280;67556;55.656;12.590;2023-04-25T05:49:57;100015.00;;;6.21;80.49
78299;BME280;67556;55.656;12.590;2023-04-25T05:52:23;99999.91;;;6.18;80.26
78299;BME280;67556;55.656;12.590;2023-04-25T05:54:50;100009.28;;;6.10;80.55
78299;BME280;67556;55.656;12.590;2023-04-25T05:57:22;100019.44;;;6.22;79.50
78299;BME280;67556;55.656;12.590;2023-04-25T05:59:48;100002.44;;;6.15;79.65
78299;BME280;67556;55.656;12.590;2023-04-25T06:02:15;100028.63;;;6.09;79.86
78299;BME280;67556;55.656;12.590;2023-04-25T06:04:41;100028.81;;;6.14;79.24
78299;BME280;67556;55.656;12.590;2023-04-25T06:07:08;100016.56;;;6.16;79.69
78299;BME280;67556;55.656;12.590;2023-04-25T06:09:34;100012.09;;;6.15;79.38
78299;BME280;67556;55.656;12.590;2023-04-25T06:12:01;100018.50;;;6.20;79.20
78299;BME280;67556;55.656;12.590;2023-04-25T06:14:29;100010.47;;;6.18;79.06
78299;BME280;67556;55.656;12.590;2023-04-25T06:16:56;100021.06;;;6.18;79.70
78299;BME280;67556;55.656;12.590;2023-04-25T06:19:23;100027.25;;;6.19;79.16
78299;BME280;67556;55.656;12.590;2023-04-25T06:21:49;100037.63;;;6.14;78.93
78299;BME280;67556;55.656;12.590;2023-04-25T06:24:16;100041.97;;;6.12;78.78
78299;BME280;67556;55.656;12.590;2023-04-25T06:26:48;100023.88;;;6.23;78.46
78299;BME280;67556;55.656;12.590;2023-04-25T06:29:14;100017.88;;;6.27;78.63
78299;BME280;67556;55.656;12.590;2023-04-25T06:31:42;100036.91;;;6.18;78.77
78299;BME280;67556;55.656;12.590;2023-04-25T06:34:09;100029.25;;;6.24;78.78
78299;BME280;67556;55.656;12.590;2023-04-25T06:36:41;100034.41;;;6.21;78.27
78299;BME280;67556;55.656;12.590;2023-04-25T06:39:09;100035.34;;;6.23;78.01
78299;BME280;67556;55.656;12.590;2023-04-25T06:41:44;100028.44;;;6.27;77.93
78299;BME280;67556;55.656;12.590;2023-04-25T06:44:10;100051.44;;;6.28;77.65
78299;BME280;67556;55.656;12.590;2023-04-25T06:46:36;100033.88;;;6.30;77.95
78299;BME280;67556;55.656;12.590;2023-04-25T06:49:04;100042.56;;;6.28;78.25
78299;BME280;67556;55.656;12.590;2023-04-25T06:51:31;100040.78;;;6.27;77.61
78299;BME280;67556;55.656;12.590;2023-04-25T06:53:57;100048.13;;;6.34;77.57
78299;BME280;67556;55.656;12.590;2023-04-25T06:56:24;100041.84;;;6.32;77.28
78299;BME280;67556;55.656;12.590;2023-04-25T06:58:51;100034.41;;;6.21;77.69
78299;BME280;67556;55.656;12.590;2023-04-25T07:01:18;100037.38;;;6.29;77.96
78299;BME280;67556;55.656;12.590;2023-04-25T07:03:44;100032.00;;;6.28;78.04
78299;BME280;67556;55.656;12.590;2023-04-25T07:06:12;100051.44;;;6.28;77.52
78299;BME280;67556;55.656;12.590;2023-04-25T07:08:38;100051.63;;;6.33;77.49
78299;BME280;67556;55.656;12.590;2023-04-25T07:11:04;100051.31;;;6.25;77.71
78299;BME280;67556;55.656;12.590;2023-04-25T07:13:31;100053.34;;;6.32;77.84
78299;BME280;67556;55.656;12.590;2023-04-25T07:15:57;100057.63;;;6.29;78.17
78299;BME280;67556;55.656;12.590;2023-04-25T07:18:24;100054.84;;;6.25;77.31
78299;BME280;67556;55.656;12.590;2023-04-25T07:20:51;100051.53;;;6.31;77.52
78299;BME280;67556;55.656;12.590;2023-04-25T07:23:18;100056.19;;;6.37;77.97
78299;BME280;67556;55.656;12.590;2023-04-25T07:25:45;100058.22;;;6.44;77.78
78299;BME280;67556;55.656;12.590;2023-04-25T07:28:12;100065.25;;;6.43;77.08
78299;BME280;67556;55.656;12.590;2023-04-25T07:30:39;100059.91;;;6.42;77.46
78299;BME280;67556;55.656;12.590;2023-04-25T07:33:06;100073.72;;;6.35;77.33
78299;BME280;67556;55.656;12.590;2023-04-25T07:35:33;100076.13;;;6.29;77.18
78299;BME280;67556;55.656;12.590;2023-04-25T07:37:59;100075.88;;;6.22;77.55
78299;BME280;67556;55.656;12.590;2023-04-25T07:40:28;100084.78;;;6.24;78.21
78299;BME280;67556;55.656;12.590;2023-04-25T07:42:55;100071.47;;;6.23;77.70
78299;BME280;67556;55.656;12.590;2023-04-25T07:45:22;100088.97;;;6.19;77.99
78299;BME280;67556;55.656;12.590;2023-04-25T07:47:50;100097.69;;;6.17;78.36
78299;BME280;67556;55.656;12.590;2023-04-25T07:50:22;100091.72;;;6.22;78.09
78299;BME280;67556;55.656;12.590;2023-04-25T07:52:50;100089.22;;;6.25;77.54
78299;BME280;67556;55.656;12.590;2023-04-25T07:55:17;100088.72;;;6.13;77.92
78299;BME280;67556;55.656;12.590;2023-04-25T07:57:45;100099.25;;;6.34;77.94
78299;BME280;67556;55.656;12.590;2023-04-25T08:00:13;100099.94;;;6.29;76.88
78299;BME280;67556;55.656;12.590;2023-04-25T08:02:41;100103.38;;;6.28;77.45
78299;BME280;67556;55.656;12.590;2023-04-25T08:05:08;100088.47;;;6.28;77.34
78299;BME280;67556;55.656;12.590;2023-04-25T08:07:37;100104.41;;;6.31;76.88
78299;BME280;67556;55.656;12.590;2023-04-25T08:10:05;100093.44;;;6.43;76.03
78299;BME280;67556;55.656;12.590;2023-04-25T08:12:33;100115.09;;;6.55;76.33
78299;BME280;67556;55.656;12.590;2023-04-25T08:15:04;100110.34;;;6.46;75.90
78299;BME280;67556;55.656;12.590;2023-04-25T08:17:37;100108.97;;;6.56;75.85
78299;BME280;67556;55.656;12.590;2023-04-25T08:20:07;100112.63;;;6.60;75.41
78299;BME280;67556;55.656;12.590;2023-04-25T08:22:34;100128.69;;;6.64;74.99
78299;BME280;67556;55.656;12.590;2023-04-25T08:25:03;100118.28;;;6.69;74.78
78299;BME280;67556;55.656;12.590;2023-04-25T08:27:30;100118.38;;;6.70;74.51
78299;BME280;67556;55.656;12.590;2023-04-25T08:29:58;100122.53;;;6.65;74.86
78299;BME280;67556;55.656;12.590;2023-04-25T08:32:26;100142.19;;;6.70;74.51
78299;BME280;67556;55.656;12.590;2023-04-25T08:34:54;100139.81;;;6.78;73.80
78299;BME280;67556;55.656;12.590;2023-04-25T08:37:21;100134.25;;;6.70;74.00
78299;BME280;67556;55.656;12.590;2023-04-25T08:39:50;100152.63;;;6.67;73.90
78299;BME280;67556;55.656;12.590;2023-04-25T08:42:17;100141.16;;;6.67;74.51
78299;BME280;67556;55.656;12.590;2023-04-25T08:44:45;100149.13;;;6.68;74.23
78299;BME280;67556;55.656;12.590;2023-04-25T08:47:12;100159.72;;;6.68;73.87
78299;BME280;67556;55.656;12.590;2023-04-25T08:49:44;100160.81;;;6.73;73.69
78299;BME280;67556;55.656;12.590;2023-04-25T08:52:13;100170.66;;;6.78;73.96
78299;BME280;67556;55.656;12.590;2023-04-25T08:54:42;100155.50;;;6.73;73.85
78299;BME280;67556;55.656;12.590;2023-04-25T08:57:10;100163.84;;;6.83;73.73
78299;BME280;67556;55.656;12.590;2023-04-25T08:59:39;100160.22;;;6.81;72.21
78299;BME280;67556;55.656;12.590;2023-04-25T09:02:06;100190.91;;;6.75;71.69
78299;BME280;67556;55.656;12.590;2023-04-25T09:04:34;100163.56;;;6.77;70.90
78299;BME280;67556;55.656;12.590;2023-04-25T09:07:03;100181.38;;;6.81;70.17
78299;BME280;67556;55.656;12.590;2023-04-25T09:09:31;100180.81;;;6.88;70.28
78299;BME280;67556;55.656;12.590;2023-04-25T09:11:58;100187.03;;;6.90;70.78
78299;BME280;67556;55.656;12.590;2023-04-25T09:14:27;100184.22;;;6.85;70.00
78299;BME280;67556;55.656;12.590;2023-04-25T09:17:04;100197.84;;;6.73;70.77
78299;BME280;67556;55.656;12.590;2023-04-25T09:19:35;100197.94;;;6.75;71.21
78299;BME280;67556;55.656;12.590;2023-04-25T09:22:05;100218.06;;;6.71;71.12
78299;BME280;67556;55.656;12.590;2023-04-25T09:24:34;100215.25;;;6.67;70.79
78299;BME280;67556;55.656;12.590;2023-04-25T09:27:03;100226.34;;;6.58;71.41
78299;BME280;67556;55.656;12.590;2023-04-25T09:29:32;100224.53;;;6.57;71.02
78299;BME280;67556;55.656;12.590;2023-04-25T09:32:15;100219.38;;;6.60;70.55
78299;BME280;67556;55.656;12.590;2023-04-25T09:34:49;100215.88;;;6.61;69.51
78299;BME280;67556;55.656;12.590;2023-04-25T09:37:21;100216.72;;;6.60;69.78
78299;BME280;67556;55.656;12.590;2023-04-25T09:39:51;100225.53;;;6.82;69.54
78299;BME280;67556;55.656;12.590;2023-04-25T09:42:28;100233.75;;;6.88;68.68
78299;BME280;67556;55.656;12.590;2023-04-25T09:44:57;100226.28;;;7.00;67.79
78299;BME280;67556;55.656;12.590;2023-04-25T09:47:26;100213.25;;;7.05;67.25
78299;BME280;67556;55.656;12.590;2023-04-25T09:49:55;100225.81;;;7.10;66.07
78299;BME280;67556;55.656;12.590;2023-04-25T09:52:24;100231.03;;;7.31;66.39
78299;BME280;67556;55.656;12.590;2023-04-25T09:54:52;100238.81;;;7.27;64.92
78299;BME280;67556;55.656;12.590;2023-04-25T09:57:20;100236.38;;;7.33;65.06
78299;BME280;67556;55.656;12.590;2023-04-25T09:59:49;100235.84;;;7.41;64.61
78299;BME280;67556;55.656;12.590;2023-04-25T10:02:19;100230.91;;;7.28;64.04
78299;BME280;67556;55.656;12.590;2023-04-25T10:04:48;100234.47;;;7.29;63.74
78299;BME280;67556;55.656;12.590;2023-04-25T10:07:18;100238.09;;;7.31;63.88
78299;BME280;67556;55.656;12.590;2023-04-25T10:09:48;100250.56;;;7.33;63.58
78299;BME280;67556;55.656;12.590;2023-04-25T10:12:16;100259.41;;;7.34;63.02
78299;BME280;67556;55.656;12.590;2023-04-25T10:14:42;100249.22;;;7.22;62.75
78299;BME280;67556;55.656;12.590;2023-04-25T10:17:10;100258.50;;;7.33;62.40
78299;BME280;67556;55.656;12.590;2023-04-25T10:19:39;100249.59;;;7.31;61.63
78299;BME280;67556;55.656;12.590;2023-04-25T10:22:08;100255.50;;;7.46;61.17
78299;BME280;67556;55.656;12.590;2023-04-25T10:24:35;100261.91;;;7.53;60.88
78299;BME280;67556;55.656;12.590;2023-04-25T10:27:04;100271.06;;;7.61;61.11
78299;BME280;67556;55.656;12.590;2023-04-25T10:29:36;100267.34;;;7.56;60.05
78299;BME280;67556;55.656;12.590;2023-04-25T10:32:04;100260.34;;;7.58;59.80
78299;BME280;67556;55.656;12.590;2023-04-25T10:34:39;100261.06;;;7.54;58.98
78299;BME280;67556;55.656;12.590;2023-04-25T10:37:10;100254.72;;;7.73;58.75
78299;BME280;67556;55.656;12.590;2023-04-25T10:39:39;100267.72;;;7.89;58.12
78299;BME280;67556;55.656;12.590;2023-04-25T10:42:08;100248.09;;;7.84;57.44
78299;BME280;67556;55.656;12.590;2023-04-25T10:44:37;100260.38;;;7.82;58.16
78299;BME280;67556;55.656;12.590;2023-04-25T10:47:07;100265.78;;;7.85;58.04
78299;BME280;67556;55.656;12.590;2023-04-25T10:49:37;100260.31;;;7.81;57.94
78299;BME280;67556;55.656;12.590;2023-04-25T10:52:17;100266.56;;;7.83;57.89
78299;BME280;67556;55.656;12.590;2023-04-25T10:54:52;100272.59;;;7.79;58.24
78299;BME280;67556;55.656;12.590;2023-04-25T10:57:46;100261.84;;;7.98;58.57
78299;BME280;67556;55.656;12.590;2023-04-25T11:00:17;100273.13;;;7.92;58.70
78299;BME280;67556;55.656;12.590;2023-04-25T11:02:46;100276.28;;;8.06;58.92
78299;BME280;67556;55.656;12.590;2023-04-25T11:05:22;100278.19;;;7.86;58.77
78299;BME280;67556;55.656;12.590;2023-04-25T11:07:52;100290.34;;;7.80;59.72
78299;BME280;67556;55.656;12.590;2023-04-25T11:10:25;100287.72;;;7.81;59.72
78299;BME280;67556;55.656;12.590;2023-04-25T11:12:53;100284.09;;;7.79;59.49
78299;BME280;67556;55.656;12.590;2023-04-25T11:15:19;100294.31;;;7.68;59.43
78299;BME280;67556;55.656;12.590;2023-04-25T11:17:47;100292.13;;;7.81;59.03
78299;BME280;67556;55.656;12.590;2023-04-25T11:20:14;100274.59;;;7.84;57.89
78299;BME280;67556;55.656;12.590;2023-04-25T11:22:41;100279.56;;;7.99;57.43
78299;BME280;67556;55.656;12.590;2023-04-25T11:25:09;100272.66;;;8.04;56.33
78299;BME280;67556;55.656;12.590;2023-04-25T11:27:38;100280.31;;;8.20;56.28
78299;BME280;67556;55.656;12.590;2023-04-25T11:30:15;100286.88;;;8.30;56.83
78299;BME280;67556;55.656;12.590;2023-04-25T11:32:42;100287.78;;;8.31;56.91
78299;BME280;67556;55.656;12.590;2023-04-25T11:35:10;100290.94;;;8.20;57.08
78299;BME280;67556;55.656;12.590;2023-04-25T11:37:39;100291.50;;;8.12;56.91
78299;BME280;67556;55.656;12.590;2023-04-25T11:40:06;100300.88;;;8.02;56.90
78299;BME280;67556;55.656;12.590;2023-04-25T11:42:34;100296.47;;;7.79;58.16
78299;BME280;67556;55.656;12.590;2023-04-25T11:45:03;100297.09;;;7.95;58.12
78299;BME280;67556;55.656;12.590;2023-04-25T11:47:33;100309.44;;;7.95;58.87
78299;BME280;67556;55.656;12.590;2023-04-25T11:50:00;100294.16;;;8.12;58.27
78299;BME280;67556;55.656;12.590;2023-04-25T11:52:38;100306.94;;;8.22;56.90
78299;BME280;67556;55.656;12.590;2023-04-25T11:55:07;100301.66;;;8.23;55.77
78299;BME280;67556;55.656;12.590;2023-04-25T11:57:33;100305.63;;;8.11;56.06
78299;BME280;67556;55.656;12.590;2023-04-25T12:00:09;100305.59;;;8.09;56.32
78299;BME280;67556;55.656;12.590;2023-04-25T12:02:45;100304.84;;;8.13;56.03
78299;BME280;67556;55.656;12.590;2023-04-25T12:05:14;100321.50;;;8.09;56.88
78299;BME280;67556;55.656;12.590;2023-04-25T12:07:42;100311.63;;;8.05;56.43
78299;BME280;67556;55.656;12.590;2023-04-25T12:10:12;100313.09;;;7.97;55.39
78299;BME280;67556;55.656;12.590;2023-04-25T12:12:42;100325.50;;;7.98;56.01
78299;BME280;67556;55.656;12.590;2023-04-25T12:15:12;100327.53;;;8.05;57.12
78299;BME280;67556;55.656;12.590;2023-04-25T12:17:45;100325.81;;;8.07;56.52
78299;BME280;67556;55.656;12.590;2023-04-25T12:20:19;100338.97;;;8.04;56.03
78299;BME280;67556;55.656;12.590;2023-04-25T12:23:06;100320.53;;;8.07;56.27
78299;BME280;67556;55.656;12.590;2023-04-25T12:25:35;100326.81;;;8.09;56.96
78299;BME280;67556;55.656;12.590;2023-04-25T12:28:10;100336.47;;;8.09;55.76
78299;BME280;67556;55.656;12.590;2023-04-25T12:30:52;100341.16;;;7.92;54.38
78299;BME280;67556;55.656;12.590;2023-04-25T12:33:21;100330.09;;;8.04;54.56
78299;BME280;67556;55.656;12.590;2023-04-25T12:35:52;100337.16;;;8.03;54.43
78299;BME280;67556;55.656;12.590;2023-04-25T12:38:25;100337.56;;;7.90;55.75
78299;BME280;67556;55.656;12.590;2023-04-25T12:40:53;100337.69;;;7.93;55.89
78299;BME280;67556;55.656;12.590;2023-04-25T12:43:19;100340.25;;;7.91;56.21
78299;BME280;67556;55.656;12.590;2023-04-25T12:45:48;100342.25;;;7.97;56.28
78299;BME280;67556;55.656;12.590;2023-04-25T12:48:17;100342.34;;;8.00;56.97
78299;BME280;67556;55.656;12.590;2023-04-25T12:50:47;100344.50;;;8.10;57.26
78299;BME280;67556;55.656;12.590;2023-04-25T12:53:15;100339.13;;;8.09;56.85
78299;BME280;67556;55.656;12.590;2023-04-25T12:55:48;100343.16;;;7.97;56.14
78299;BME280;67556;55.656;12.590;2023-04-25T12:58:18;100348.28;;;7.93;56.45
78299;BME280;67556;55.656;12.590;2023-04-25T13:00:46;100349.91;;;7.89;55.99
78299;BME280;67556;55.656;12.590;2023-04-25T13:03:13;100346.22;;;7.86;55.97